createdAt,value
2023-02-23T00:02:08.640Z,96672.00
2023-02-23T00:04:36.329Z,96676.00
2023-02-23T00:07:03.875Z,96680.00
2023-02-23T00:09:35.544Z,96665.00
2023-02-23T00:12:09.014Z,96670.00
2023-02-23T00:14:38.117Z,96655.00
2023-02-23T00:17:14.499Z,96656.00
2023-02-23T00:19:44.201Z,96656.00
2023-02-23T00:22:13.031Z,96656.00
2023-02-23T00:24:42.531Z,96651.00
2023-02-23T00:27:09.825Z,96649.00
2023-02-23T00:29:39.986Z,96655.00
2023-02-23T00:32:07.782Z,96652.00
2023-02-23T00:34:37.872Z,96649.00
2023-02-23T00:37:06.187Z,96655.00
2023-02-23T00:39:33.433Z,96660.00
2023-02-23T00:42:03.455Z,96651.00
2023-02-23T00:44:32.393Z,96661.00
2023-02-23T00:46:59.522Z,96656.00
2023-02-23T00:49:28.117Z,96664.00
2023-02-23T00:51:55.694Z,96660.00
2023-02-23T00:54:23.965Z,96659.00
2023-02-23T00:56:51.614Z,96657.00
2023-02-23T00:59:20.272Z,96655.00
2023-02-23T01:01:48.731Z,96659.00
2023-02-23T01:04:17.001Z,96651.00
2023-02-23T01:06:44.556Z,96650.00
2023-02-23T01:09:22.469Z,96654.00
2023-02-23T01:11:49.399Z,96643.00
2023-02-23T01:14:16.177Z,96653.00
2023-02-23T01:16:44.244Z,96651.00
2023-02-23T01:19:13.334Z,96658.00
2023-02-23T01:21:42.411Z,96642.00
2023-02-23T01:24:11.826Z,96654.00
2023-02-23T01:26:44.890Z,96656.00
2023-02-23T01:29:16.498Z,96647.00
2023-02-23T01:31:49.563Z,96650.00
2023-02-23T01:34:17.701Z,96657.00
2023-02-23T01:36:45.897Z,96652.00
2023-02-23T01:39:18.517Z,96659.00
2023-02-23T01:41:45.762Z,96658.00
2023-02-23T01:44:15.907Z,96658.00
2023-02-23T01:46:46.015Z,96650.00
2023-02-23T01:49:23.104Z,96649.00
2023-02-23T01:52:00.113Z,96645.00
2023-02-23T01:54:40.024Z,96634.00
2023-02-23T01:57:14.248Z,96649.00
2023-02-23T01:59:49.183Z,96646.00
2023-02-23T02:02:27.617Z,96652.00
2023-02-23T02:04:57.464Z,96651.00
2023-02-23T02:07:29.594Z,96653.00
2023-02-23T02:10:11.506Z,96633.00
2023-02-23T02:12:47.430Z,96619.00
2023-02-23T02:15:18.393Z,96633.00
2023-02-23T02:18:25.660Z,96630.00
2023-02-23T02:21:22.621Z,96631.00
2023-02-23T02:24:00.694Z,96626.00
2023-02-23T02:26:46.652Z,96627.00
2023-02-23T02:29:39.700Z,96621.00
2023-02-23T02:32:39.347Z,96622.00
2023-02-23T02:35:38.021Z,96625.00
2023-02-23T02:38:32.010Z,96622.00
2023-02-23T02:41:15.549Z,96616.00
2023-02-23T02:43:54.699Z,96627.00
2023-02-23T02:46:34.917Z,96619.00
2023-02-23T02:49:09.703Z,96615.00
2023-02-23T02:51:48.918Z,96615.00
2023-02-23T02:54:36.444Z,96621.00
2023-02-23T02:57:04.656Z,96627.00
2023-02-23T02:59:50.996Z,96630.00
2023-02-23T03:02:41.344Z,96625.00
2023-02-23T03:05:38.107Z,96624.00
2023-02-23T03:08:38.528Z,96635.00
2023-02-23T03:11:33.020Z,96619.00
2023-02-23T03:14:49.101Z,96623.00
2023-02-23T03:18:04.613Z,96620.00
2023-02-23T03:20:52.736Z,96621.00
2023-02-23T03:23:47.269Z,96624.00
2023-02-23T03:27:20.284Z,96627.00
2023-02-23T03:30:26.302Z,96627.00
2023-02-23T03:33:16.958Z,96626.00
2023-02-23T03:36:07.747Z,96629.00
2023-02-23T03:39:10.473Z,96627.00
2023-02-23T03:41:59.717Z,96633.00
2023-02-23T03:44:54.912Z,96628.00
2023-02-23T03:47:45.812Z,96635.00
2023-02-23T03:50:52.431Z,96627.00
2023-02-23T03:53:46.144Z,96635.00
2023-02-23T03:56:35.229Z,96637.00
2023-02-23T03:59:22.708Z,96633.00
2023-02-23T04:02:10.810Z,96640.00
2023-02-23T04:04:57.386Z,96638.00
2023-02-23T04:07:43.178Z,96641.00
2023-02-23T04:10:29.921Z,96634.00
2023-02-23T04:13:22.696Z,96639.00
2023-02-23T04:15:56.256Z,96637.00
2023-02-23T04:18:34.145Z,96642.00
2023-02-23T04:21:02.305Z,96632.00
2023-02-23T04:23:29.513Z,96636.00
2023-02-23T04:25:56.974Z,96635.00
2023-02-23T04:28:27.974Z,96632.00
2023-02-23T04:30:54.933Z,96634.00
2023-02-23T04:33:24.892Z,96640.00
2023-02-23T04:35:54.021Z,96638.00
2023-02-23T04:38:22.261Z,96626.00
2023-02-23T04:40:49.516Z,96634.00
2023-02-23T04:43:16.328Z,96628.00
2023-02-23T04:45:44.676Z,96630.00
2023-02-23T04:48:11.459Z,96636.00
2023-02-23T04:50:38.484Z,96628.00
2023-02-23T04:53:05.570Z,96635.00
2023-02-23T04:55:32.887Z,96630.00
2023-02-23T04:58:03.127Z,96639.00
2023-02-23T05:00:31.485Z,96638.00
2023-02-23T05:02:58.355Z,96640.00
2023-02-23T05:05:25.468Z,96642.00
2023-02-23T05:07:53.606Z,96643.00
2023-02-23T05:10:20.611Z,96636.00
2023-02-23T05:12:47.664Z,96639.00
2023-02-23T05:15:14.829Z,96640.00
2023-02-23T05:17:42.002Z,96644.00
2023-02-23T05:20:11.324Z,96634.00
2023-02-23T05:22:38.252Z,96638.00
2023-02-23T05:25:06.314Z,96641.00
2023-02-23T05:27:33.269Z,96639.00
2023-02-23T05:30:01.142Z,96633.00
2023-02-23T05:32:28.581Z,96640.00
2023-02-23T05:34:55.511Z,96634.00
2023-02-23T05:37:22.364Z,96636.00
2023-02-23T05:39:49.217Z,96636.00
2023-02-23T05:42:16.114Z,96639.00
2023-02-23T05:44:42.929Z,96628.00
2023-02-23T05:47:10.763Z,96635.00
2023-02-23T05:49:38.483Z,96639.00
2023-02-23T05:52:05.488Z,96641.00
2023-02-23T05:54:32.364Z,96646.00
2023-02-23T05:57:01.663Z,96648.00
2023-02-23T05:59:28.614Z,96647.00
2023-02-23T06:01:55.799Z,96654.00
2023-02-23T06:04:23.320Z,96650.00
2023-02-23T06:06:50.320Z,96653.00
2023-02-23T06:09:17.171Z,96657.00
2023-02-23T06:11:44.562Z,96660.00
2023-02-23T06:14:11.624Z,96658.00
2023-02-23T06:16:39.341Z,96662.00
2023-02-23T06:19:06.291Z,96663.00
2023-02-23T06:21:33.693Z,96661.00
2023-02-23T06:24:00.997Z,96664.00
2023-02-23T06:26:28.595Z,96664.00
2023-02-23T06:28:55.927Z,96681.00
2023-02-23T06:31:23.211Z,96663.00
2023-02-23T06:33:50.859Z,96676.00
2023-02-23T06:36:17.715Z,96679.00
2023-02-23T06:38:45.027Z,96677.00
2023-02-23T06:41:12.959Z,96679.00
2023-02-23T06:43:39.776Z,96682.00
2023-02-23T06:46:06.875Z,96682.00
2023-02-23T06:48:33.755Z,96682.00
2023-02-23T06:51:00.593Z,96690.00
2023-02-23T06:53:27.959Z,96686.00
2023-02-23T06:55:54.800Z,96690.00
2023-02-23T06:58:21.584Z,96691.00
2023-02-23T07:00:48.554Z,96686.00
2023-02-23T07:03:15.417Z,96688.00
2023-02-23T07:05:42.174Z,96697.00
2023-02-23T07:08:09.012Z,96687.00
2023-02-23T07:10:35.780Z,96693.00
2023-02-23T07:13:02.586Z,96701.00
2023-02-23T07:15:29.641Z,96700.00
2023-02-23T07:17:57.449Z,96700.00
2023-02-23T07:20:24.325Z,96701.00
2023-02-23T07:22:51.995Z,96693.00
2023-02-23T07:25:18.818Z,96699.00
2023-02-23T07:27:45.631Z,96706.00
2023-02-23T07:30:13.716Z,96708.00
2023-02-23T07:32:41.341Z,96702.00
2023-02-23T07:35:08.626Z,96708.00
2023-02-23T07:37:35.439Z,96712.00
2023-02-23T07:40:02.955Z,96711.00
2023-02-23T07:42:29.701Z,96707.00
2023-02-23T07:44:56.541Z,96704.00
2023-02-23T07:47:30.732Z,96713.00
2023-02-23T07:49:59.711Z,96704.00
2023-02-23T07:52:26.736Z,96713.00
2023-02-23T07:54:54.134Z,96712.00
2023-02-23T07:57:22.865Z,96712.00
2023-02-23T07:59:51.555Z,96711.00
2023-02-23T08:02:18.515Z,96717.00
2023-02-23T08:04:45.394Z,96712.00
2023-02-23T08:07:12.144Z,96720.00
2023-02-23T08:09:38.994Z,96711.00
2023-02-23T08:12:06.138Z,96721.00
2023-02-23T08:14:32.900Z,96727.00
2023-02-23T08:17:01.509Z,96718.00
2023-02-23T08:19:29.379Z,96733.00
2023-02-23T08:21:56.824Z,96730.00
2023-02-23T08:24:24.621Z,96727.00
2023-02-23T08:26:51.474Z,96732.00
2023-02-23T08:29:19.044Z,96727.00
2023-02-23T08:31:45.954Z,96728.00
2023-02-23T08:34:14.087Z,96722.00
2023-02-23T08:36:40.912Z,96722.00
2023-02-23T08:39:09.948Z,96725.00
2023-02-23T08:41:36.880Z,96727.00
2023-02-23T08:44:03.891Z,96730.00
2023-02-23T08:46:31.003Z,96719.00
2023-02-23T08:48:58.075Z,96716.00
2023-02-23T08:51:25.484Z,96710.00
2023-02-23T08:53:52.518Z,96719.00
2023-02-23T08:56:19.546Z,96721.00
2023-02-23T08:58:46.314Z,96723.00
2023-02-23T09:01:19.737Z,96725.00
2023-02-23T09:03:46.741Z,96726.00
2023-02-23T09:06:19.132Z,96720.00
2023-02-23T09:08:46.320Z,96720.00
2023-02-23T09:11:13.104Z,96719.00
2023-02-23T09:13:39.906Z,96717.00
2023-02-23T09:16:10.343Z,96717.00
2023-02-23T09:18:37.800Z,96719.00
2023-02-23T09:21:08.458Z,96722.00
2023-02-23T09:23:36.334Z,96728.00
2023-02-23T09:26:08.345Z,96726.00
2023-02-23T09:28:36.249Z,96725.00
2023-02-23T09:31:10.057Z,96725.00
2023-02-23T09:33:37.155Z,96721.00
2023-02-23T09:36:18.944Z,96729.00
2023-02-23T09:38:48.800Z,96732.00
2023-02-23T09:42:17.184Z,96746.00
2023-02-23T09:45:17.611Z,96741.00
2023-02-23T09:47:54.095Z,96747.00
2023-02-23T09:50:27.234Z,96747.00
2023-02-23T09:53:26.695Z,96741.00
2023-02-23T09:55:57.379Z,96747.00
2023-02-23T09:58:31.364Z,96745.00
2023-02-23T10:01:25.358Z,96748.00
2023-02-23T10:04:21.136Z,96750.00
2023-02-23T10:07:22.957Z,96749.00
2023-02-23T10:10:14.238Z,96749.00
2023-02-23T10:13:34.088Z,96749.00
2023-02-23T10:16:22.845Z,96751.00
2023-02-23T10:19:05.707Z,96754.00
2023-02-23T10:21:45.945Z,96759.00
2023-02-23T10:24:56.975Z,96754.00
2023-02-23T10:27:33.179Z,96745.00
2023-02-23T10:30:02.738Z,96752.00
2023-02-23T10:32:49.269Z,96744.00
2023-02-23T10:35:20.975Z,96745.00
2023-02-23T10:37:49.357Z,96735.00
2023-02-23T10:40:23.319Z,96740.00
2023-02-23T10:42:54.669Z,96723.00
2023-02-23T10:45:25.946Z,96734.00
2023-02-23T10:48:04.764Z,96739.00
2023-02-23T10:50:33.602Z,96725.00
2023-02-23T10:53:18.733Z,96721.00
2023-02-23T10:55:48.781Z,96722.00
2023-02-23T10:58:19.539Z,96716.00
2023-02-23T11:00:59.457Z,96726.00
2023-02-23T11:03:57.713Z,96729.00
2023-02-23T11:06:39.507Z,96729.00
2023-02-23T11:09:45.843Z,96740.00
2023-02-23T11:12:25.672Z,96730.00
2023-02-23T11:14:59.048Z,96717.00
2023-02-23T11:17:35.838Z,96719.00
2023-02-23T11:20:26.498Z,96721.00
2023-02-23T11:22:58.980Z,96712.00
2023-02-23T11:25:33.657Z,96711.00
2023-02-23T11:28:02.485Z,96711.00
2023-02-23T11:30:43.432Z,96705.00
2023-02-23T11:33:20.387Z,96698.00
2023-02-23T11:35:47.337Z,96697.00
2023-02-23T11:38:29.710Z,96699.00
2023-02-23T11:41:07.408Z,96698.00
2023-02-23T11:43:36.011Z,96702.00
2023-02-23T11:46:04.052Z,96694.00
2023-02-23T11:48:55.112Z,96691.00
2023-02-23T11:51:54.339Z,96682.00
2023-02-23T11:54:29.033Z,96689.00
2023-02-23T11:56:57.908Z,96678.00
2023-02-23T11:59:31.554Z,96680.00
2023-02-23T12:02:30.770Z,96694.00
2023-02-23T12:05:16.995Z,96685.00
2023-02-23T12:07:50.454Z,96682.00
2023-02-23T12:10:38.681Z,96663.00
2023-02-23T12:13:12.095Z,96682.00
2023-02-23T12:16:17.001Z,96674.00
2023-02-23T12:19:24.816Z,96674.00
2023-02-23T12:22:02.877Z,96667.00
2023-02-23T12:24:44.528Z,96679.00
2023-02-23T12:27:45.320Z,96675.00
2023-02-23T12:30:21.045Z,96672.00
2023-02-23T12:33:12.339Z,96669.00
2023-02-23T12:35:45.510Z,96661.00
2023-02-23T12:38:27.829Z,96651.00
2023-02-23T12:41:34.035Z,96659.00
2023-02-23T12:44:38.230Z,96660.00
2023-02-23T12:47:20.445Z,96655.00
2023-02-23T12:49:57.448Z,96662.00
2023-02-23T12:52:36.837Z,96658.00
2023-02-23T12:55:10.207Z,96652.00
2023-02-23T12:58:32.667Z,96652.00
2023-02-23T13:01:02.146Z,96654.00
2023-02-23T13:04:01.318Z,96644.00
2023-02-23T13:06:51.402Z,96648.00
2023-02-23T13:09:36.035Z,96652.00
2023-02-23T13:12:37.249Z,96644.00
2023-02-23T13:15:35.794Z,96643.00
2023-02-23T13:18:11.950Z,96652.00
2023-02-23T13:20:44.902Z,96651.00
2023-02-23T13:23:29.763Z,96648.00
2023-02-23T13:26:27.233Z,96646.00
2023-02-23T13:29:08.681Z,96640.00
2023-02-23T13:31:41.771Z,96643.00
2023-02-23T13:34:32.275Z,96642.00
2023-02-23T13:37:06.079Z,96635.00
2023-02-23T13:39:59.650Z,96646.00
2023-02-23T13:42:48.862Z,96638.00
2023-02-23T13:45:42.622Z,96637.00
2023-02-23T13:49:01.749Z,96630.00
2023-02-23T13:51:50.307Z,96627.00
2023-02-23T13:54:22.862Z,96626.00
2023-02-23T13:56:56.762Z,96621.00
2023-02-23T13:59:33.124Z,96628.00
2023-02-23T14:02:28.896Z,96625.00
2023-02-23T14:05:30.748Z,96621.00
2023-02-23T14:08:06.243Z,96616.00
2023-02-23T14:10:41.350Z,96621.00
2023-02-23T14:13:15.175Z,96626.00
2023-02-23T14:15:53.656Z,96617.00
2023-02-23T14:18:27.920Z,96635.00
2023-02-23T14:21:20.114Z,96632.00
2023-02-23T14:24:15.081Z,96625.00
2023-02-23T14:26:47.840Z,96628.00
2023-02-23T14:29:26.271Z,96632.00
2023-02-23T14:32:17.990Z,96637.00
2023-02-23T14:34:57.051Z,96638.00
2023-02-23T14:37:39.398Z,96630.00
2023-02-23T14:40:32.484Z,96626.00
2023-02-23T14:43:02.916Z,96632.00
2023-02-23T14:45:38.238Z,96625.00
2023-02-23T14:48:13.497Z,96627.00
2023-02-23T14:50:42.068Z,96622.00
2023-02-23T14:53:22.305Z,96627.00
2023-02-23T14:55:50.734Z,96620.00
2023-02-23T14:58:35.721Z,96620.00
2023-02-23T15:01:04.085Z,96630.00
2023-02-23T15:03:31.215Z,96621.00
2023-02-23T15:06:01.601Z,96618.00
2023-02-23T15:08:31.445Z,96612.00
2023-02-23T15:11:13.210Z,96618.00
2023-02-23T15:13:51.221Z,96609.00
2023-02-23T15:16:35.172Z,96603.00
2023-02-23T15:19:04.396Z,96612.00
2023-02-23T15:21:31.533Z,96603.00
2023-02-23T15:24:12.870Z,96611.00
2023-02-23T15:26:41.274Z,96605.00
2023-02-23T15:29:11.706Z,96601.00
2023-02-23T15:31:41.121Z,96613.00
2023-02-23T15:34:12.662Z,96614.00
2023-02-23T15:36:41.541Z,96610.00
2023-02-23T15:39:18.444Z,96611.00
2023-02-23T15:41:49.412Z,96613.00
2023-02-23T15:44:38.321Z,96614.00
2023-02-23T15:47:28.573Z,96614.00
2023-02-23T15:50:10.048Z,96612.00
2023-02-23T15:52:48.058Z,96612.00
2023-02-23T15:55:24.982Z,96617.00
2023-02-23T15:58:01.901Z,96619.00
2023-02-23T16:00:42.825Z,96618.00
2023-02-23T16:03:31.742Z,96620.00
2023-02-23T16:06:21.633Z,96612.00
2023-02-23T16:09:34.713Z,96607.00
2023-02-23T16:12:15.047Z,96612.00
2023-02-23T16:14:54.054Z,96609.00
2023-02-23T16:17:48.627Z,96610.00
2023-02-23T16:20:29.051Z,96613.00
2023-02-23T16:22:58.091Z,96618.00
2023-02-23T16:25:28.017Z,96614.00
2023-02-23T16:28:16.180Z,96614.00
2023-02-23T16:31:02.592Z,96604.00
2023-02-23T16:33:42.628Z,96618.00
2023-02-23T16:36:20.828Z,96607.00
2023-02-23T16:39:04.353Z,96621.00
2023-02-23T16:41:34.510Z,96624.00
2023-02-23T16:44:05.105Z,96621.00
2023-02-23T16:47:11.317Z,96622.00
2023-02-23T16:49:38.352Z,96623.00
2023-02-23T16:52:17.693Z,96620.00
2023-02-23T16:54:47.373Z,96632.00
2023-02-23T16:57:39.786Z,96628.00
2023-02-23T17:00:14.486Z,96622.00
2023-02-23T17:02:42.112Z,96617.00
2023-02-23T17:05:20.194Z,96629.00
2023-02-23T17:07:48.557Z,96621.00
2023-02-23T17:10:25.926Z,96616.00
2023-02-23T17:13:04.408Z,96624.00
2023-02-23T17:15:47.921Z,96620.00
2023-02-23T17:18:14.939Z,96621.00
2023-02-23T17:20:41.718Z,96623.00
2023-02-23T17:23:08.517Z,96618.00
2023-02-23T17:25:35.608Z,96623.00
2023-02-23T17:28:03.678Z,96622.00
2023-02-23T17:30:31.241Z,96631.00
2023-02-23T17:32:59.386Z,96626.00
2023-02-23T17:35:26.826Z,96627.00
2023-02-23T17:37:54.326Z,96621.00
2023-02-23T17:40:28.930Z,96624.00
2023-02-23T17:42:58.273Z,96639.00
2023-02-23T17:45:26.596Z,96636.00
2023-02-23T17:47:54.062Z,96635.00
2023-02-23T17:50:22.120Z,96628.00
2023-02-23T17:52:50.200Z,96627.00
2023-02-23T17:55:18.575Z,96624.00
2023-02-23T17:57:45.977Z,96634.00
2023-02-23T18:00:15.309Z,96637.00
2023-02-23T18:02:44.118Z,96632.00
2023-02-23T18:05:12.429Z,96629.00
2023-02-23T18:07:39.487Z,96635.00
2023-02-23T18:10:07.312Z,96629.00
2023-02-23T18:12:35.054Z,96629.00
2023-02-23T18:15:02.098Z,96627.00
2023-02-23T18:17:28.903Z,96635.00
2023-02-23T18:19:55.946Z,96641.00
2023-02-23T18:22:22.696Z,96637.00
2023-02-23T18:24:49.489Z,96643.00
2023-02-23T18:27:16.405Z,96640.00
2023-02-23T18:29:43.194Z,96630.00
2023-02-23T18:32:12.146Z,96631.00
2023-02-23T18:34:39.022Z,96633.00
2023-02-23T18:37:09.804Z,96635.00
2023-02-23T18:39:36.816Z,96634.00
2023-02-23T18:42:04.442Z,96632.00
2023-02-23T18:44:33.457Z,96633.00
2023-02-23T18:47:02.374Z,96634.00
2023-02-23T18:49:29.232Z,96641.00
2023-02-23T18:51:56.137Z,96625.00
2023-02-23T18:54:25.823Z,96627.00
2023-02-23T18:56:52.683Z,96630.00
2023-02-23T18:59:19.464Z,96635.00
2023-02-23T19:01:47.920Z,96636.00
2023-02-23T19:04:15.090Z,96636.00
2023-02-23T19:06:45.085Z,96632.00
2023-02-23T19:09:14.254Z,96634.00
2023-02-23T19:11:43.242Z,96630.00
2023-02-23T19:14:16.593Z,96628.00
2023-02-23T19:16:44.230Z,96634.00
2023-02-23T19:19:11.173Z,96628.00
2023-02-23T19:21:38.558Z,96619.00
2023-02-23T19:24:07.043Z,96621.00
2023-02-23T19:26:39.835Z,96619.00
2023-02-23T19:29:07.122Z,96626.00
2023-02-23T19:31:34.818Z,96629.00
2023-02-23T19:34:04.887Z,96628.00
2023-02-23T19:36:34.305Z,96634.00
2023-02-23T19:39:12.729Z,96629.00
2023-02-23T19:41:40.230Z,96634.00
2023-02-23T19:44:07.274Z,96630.00
2023-02-23T19:46:34.917Z,96632.00
2023-02-23T19:49:01.804Z,96631.00
2023-02-23T19:51:28.815Z,96634.00
2023-02-23T19:53:58.561Z,96637.00
2023-02-23T19:56:27.848Z,96636.00
2023-02-23T19:58:56.426Z,96635.00
2023-02-23T20:01:27.406Z,96632.00
2023-02-23T20:03:56.617Z,96632.00
2023-02-23T20:06:25.915Z,96628.00
2023-02-23T20:08:55.011Z,96629.00
2023-02-23T20:11:22.627Z,96625.00
2023-02-23T20:13:53.014Z,96628.00
2023-02-23T20:16:20.898Z,96624.00
2023-02-23T20:18:47.855Z,96634.00
2023-02-23T20:21:17.946Z,96622.00
2023-02-23T20:23:46.918Z,96621.00
2023-02-23T20:26:26.019Z,96633.00
2023-02-23T20:28:57.429Z,96634.00
2023-02-23T20:31:29.146Z,96632.00
2023-02-23T20:33:58.473Z,96633.00
2023-02-23T20:36:25.458Z,96624.00
2023-02-23T20:38:52.595Z,96635.00
2023-02-23T20:41:20.065Z,96629.00
2023-02-23T20:43:47.302Z,96628.00
2023-02-23T20:46:16.988Z,96623.00
2023-02-23T20:48:44.178Z,96622.00
2023-02-23T20:51:15.065Z,96626.00
2023-02-23T20:53:46.592Z,96620.00
2023-02-23T20:56:16.758Z,96615.00
2023-02-23T20:58:44.521Z,96612.00
2023-02-23T21:01:20.786Z,96601.00
2023-02-23T21:03:51.147Z,96617.00
2023-02-23T21:06:20.712Z,96608.00
2023-02-23T21:08:48.845Z,96618.00
2023-02-23T21:11:18.075Z,96599.00
2023-02-23T21:13:45.972Z,96608.00
2023-02-23T21:16:16.671Z,96598.00
2023-02-23T21:18:44.058Z,96605.00
2023-02-23T21:21:11.683Z,96605.00
2023-02-23T21:23:43.346Z,96591.00
2023-02-23T21:26:13.399Z,96592.00
2023-02-23T21:28:49.233Z,96590.00
2023-02-23T21:31:16.408Z,96602.00
2023-02-23T21:33:44.164Z,96592.00
2023-02-23T21:36:12.467Z,96577.00
2023-02-23T21:38:43.155Z,96588.00
2023-02-23T21:41:13.232Z,96590.00
2023-02-23T21:43:42.414Z,96589.00
2023-02-23T21:46:12.951Z,96582.00
2023-02-23T21:48:40.028Z,96587.00
2023-02-23T21:51:11.417Z,96583.00
2023-02-23T21:53:39.087Z,96585.00
2023-02-23T21:56:16.493Z,96578.00
2023-02-23T21:58:51.674Z,96579.00
2023-02-23T22:01:26.431Z,96580.00
2023-02-23T22:03:54.967Z,96578.00
2023-02-23T22:06:26.061Z,96577.00
2023-02-23T22:08:53.491Z,96576.00
2023-02-23T22:11:24.881Z,96570.00
2023-02-23T22:13:59.265Z,96579.00
2023-02-23T22:16:33.480Z,96577.00
2023-02-23T22:19:04.041Z,96577.00
2023-02-23T22:21:34.076Z,96576.00
2023-02-23T22:24:05.252Z,96575.00
2023-02-23T22:26:38.060Z,96568.00
2023-02-23T22:29:06.801Z,96572.00
2023-02-23T22:31:34.114Z,96573.00
2023-02-23T22:34:01.174Z,96575.00
2023-02-23T22:36:29.163Z,96567.00
2023-02-23T22:38:59.716Z,96565.00
2023-02-23T22:41:30.753Z,96568.00
2023-02-23T22:43:58.077Z,96563.00
2023-02-23T22:46:26.128Z,96567.00
2023-02-23T22:48:53.405Z,96569.00
2023-02-23T22:51:20.932Z,96564.00
2023-02-23T22:53:48.012Z,96561.00
2023-02-23T22:56:14.991Z,96569.00
2023-02-23T22:58:42.216Z,96564.00
2023-02-23T23:01:11.663Z,96569.00
2023-02-23T23:03:46.154Z,96561.00
2023-02-23T23:06:22.396Z,96561.00
2023-02-23T23:08:52.190Z,96557.00
2023-02-23T23:11:23.493Z,96556.00
2023-02-23T23:13:54.592Z,96549.00
2023-02-23T23:16:32.001Z,96549.00
2023-02-23T23:19:12.080Z,96545.00
2023-02-23T23:21:41.494Z,96547.00
2023-02-23T23:24:13.112Z,96551.00
2023-02-23T23:26:41.173Z,96543.00
2023-02-23T23:29:13.045Z,96548.00
2023-02-23T23:31:45.525Z,96544.00
2023-02-23T23:34:16.371Z,96537.00
2023-02-23T23:36:49.260Z,96542.00
2023-02-23T23:39:18.090Z,96536.00
2023-02-23T23:41:48.886Z,96535.00
2023-02-23T23:44:24.901Z,96531.00
2023-02-23T23:46:53.039Z,96518.00
2023-02-23T23:49:25.772Z,96521.00
2023-02-23T23:51:58.893Z,96512.00
2023-02-23T23:54:31.561Z,96530.00
2023-02-23T23:57:04.278Z,96512.00
2023-02-23T23:59:32.567Z,96515.00
